aviador You're here:

YPAD Decoded Metar

ADELAIDE in AUSTRALIA
Report Time2017-06-27 05:00:00
UTC Time2017-06-27 05:22:08
Flight Rules vfr VFR
Wind230° at 05 kt
W.Decomp.*RWY 23: 5.0 kt HW 0.7 kt LCW
RWY 30: 1.0 kt HW 4.9 kt LCW
W.Rank230° ranks 1
Current wind is below 230° avg. (12.1)
Visibility9999 m
Phenomena:N/A
Clouds:Few 036 Hf
Expected CloudBase > 2,800 ft AGL from Temp-Dew spread
CeilingNone
Temp15°C (ISA 0)
Dew Point08°C (63% RH)
AAT12.7°C
QNH1021 hPa
Density Alt-108 ft
Elevation13 ft
Report Wrong Elevation
Raw Report
METAR YPAD 270500Z 23005KT 9999 FEW036 15/08 Q1021
NOSIG=

Extra information for YPAD:More info

Metar Taf Metar & Taf Last 4 Metars F.Rules Stats Wind Profile Meteogram Temp Stats Airport Information Weather charts Add Link Nearby VenuesMetar ALERT Operation Metar Decoded Social comments

Adelaide Airport Webcam